sensor_id;sensor_type;location;lat;lon;timestamp;temperature;humidity
21602;DHT22;10963;50.934;4.668;2024-02-26T00:00:32;7.50;99.90
21602;DHT22;10963;50.934;4.668;2024-02-26T00:02:57;7.50;99.90
21602;DHT22;10963;50.934;4.668;2024-02-26T00:05:23;7.50;99.90
21602;DHT22;10963;50.934;4.668;2024-02-26T00:07:54;7.50;99.90
21602;DHT22;10963;50.934;4.668;2024-02-26T00:10:19;7.50;99.90
21602;DHT22;10963;50.934;4.668;2024-02-26T00:12:45;7.50;99.90
21602;DHT22;10963;50.934;4.668;2024-02-26T00:15:11;7.40;99.90
21602;DHT22;10963;50.934;4.668;2024-02-26T00:17:39;7.40;99.90
21602;DHT22;10963;50.934;4.668;2024-02-26T00:20:09;7.50;99.90
21602;DHT22;10963;50.934;4.668;2024-02-26T00:22:38;7.40;99.90
21602;DHT22;10963;50.934;4.668;2024-02-26T00:25:04;7.40;99.90
21602;DHT22;10963;50.934;4.668;2024-02-26T00:27:32;7.30;99.90
21602;DHT22;10963;50.934;4.668;2024-02-26T00:29:58;7.40;99.90
21602;DHT22;10963;50.934;4.668;2024-02-26T00:32:24;7.40;99.90
21602;DHT22;10963;50.934;4.668;2024-02-26T00:34:49;7.30;99.90
21602;DHT22;10963;50.934;4.668;2024-02-26T00:37:16;7.20;99.90
21602;DHT22;10963;50.934;4.668;2024-02-26T00:39:43;7.30;99.90
21602;DHT22;10963;50.934;4.668;2024-02-26T00:42:12;7.50;99.90
21602;DHT22;10963;50.934;4.668;2024-02-26T00:44:37;7.40;99.90
21602;DHT22;10963;50.934;4.668;2024-02-26T00:47:06;7.40;99.90
21602;DHT22;10963;50.934;4.668;2024-02-26T00:49:34;7.40;99.90
21602;DHT22;10963;50.934;4.668;2024-02-26T00:52:02;7.40;99.90
21602;DHT22;10963;50.934;4.668;2024-02-26T00:54:28;7.40;99.90
21602;DHT22;10963;50.934;4.668;2024-02-26T00:56:53;7.30;99.90
21602;DHT22;10963;50.934;4.668;2024-02-26T00:59:22;7.20;99.90
21602;DHT22;10963;50.934;4.668;2024-02-26T01:01:50;7.20;99.90
21602;DHT22;10963;50.934;4.668;2024-02-26T01:04:15;7.20;99.90
21602;DHT22;10963;50.934;4.668;2024-02-26T01:06:41;7.30;99.90
21602;DHT22;10963;50.934;4.668;2024-02-26T01:09:07;7.20;99.90
21602;DHT22;10963;50.934;4.668;2024-02-26T01:11:33;7.30;99.90
21602;DHT22;10963;50.934;4.668;2024-02-26T01:13:59;7.30;99.90
21602;DHT22;10963;50.934;4.668;2024-02-26T01:16:27;7.20;99.90
21602;DHT22;10963;50.934;4.668;2024-02-26T01:18:54;7.20;99.90
21602;DHT22;10963;50.934;4.668;2024-02-26T01:21:20;7.20;99.90
21602;DHT22;10963;50.934;4.668;2024-02-26T01:23:50;7.10;99.90
21602;DHT22;10963;50.934;4.668;2024-02-26T01:26:16;7.10;99.90
21602;DHT22;10963;50.934;4.668;2024-02-26T01:28:44;7.10;99.90
21602;DHT22;10963;50.934;4.668;2024-02-26T01:31:10;7.10;99.90
21602;DHT22;10963;50.934;4.668;2024-02-26T01:33:36;7.00;99.90
21602;DHT22;10963;50.934;4.668;2024-02-26T01:36:02;7.10;99.90
21602;DHT22;10963;50.934;4.668;2024-02-26T01:38:27;7.00;99.90
21602;DHT22;10963;50.934;4.668;2024-02-26T01:40:53;7.10;99.90
21602;DHT22;10963;50.934;4.668;2024-02-26T01:43:19;7.10;99.90
21602;DHT22;10963;50.934;4.668;2024-02-26T01:45:49;7.00;99.90
21602;DHT22;10963;50.934;4.668;2024-02-26T01:48:15;7.00;99.90
21602;DHT22;10963;50.934;4.668;2024-02-26T01:50:40;7.00;99.90
21602;DHT22;10963;50.934;4.668;2024-02-26T01:53:12;7.00;99.90
21602;DHT22;10963;50.934;4.668;2024-02-26T01:55:40;7.00;99.90
21602;DHT22;10963;50.934;4.668;2024-02-26T01:58:06;7.00;99.90
21602;DHT22;10963;50.934;4.668;2024-02-26T02:00:35;6.90;99.90
21602;DHT22;10963;50.934;4.668;2024-02-26T02:03:02;6.90;99.90
21602;DHT22;10963;50.934;4.668;2024-02-26T02:05:29;6.90;99.90
21602;DHT22;10963;50.934;4.668;2024-02-26T02:07:55;6.90;99.90
21602;DHT22;10963;50.934;4.668;2024-02-26T02:10:21;6.90;99.90
21602;DHT22;10963;50.934;4.668;2024-02-26T02:12:49;6.90;99.90
21602;DHT22;10963;50.934;4.668;2024-02-26T02:15:15;6.90;99.90
21602;DHT22;10963;50.934;4.668;2024-02-26T02:17:40;7.00;99.90
21602;DHT22;10963;50.934;4.668;2024-02-26T02:20:14;6.90;99.90
21602;DHT22;10963;50.934;4.668;2024-02-26T02:22:40;7.00;99.90
21602;DHT22;10963;50.934;4.668;2024-02-26T02:25:09;7.00;99.90
21602;DHT22;10963;50.934;4.668;2024-02-26T02:27:34;6.90;99.90
21602;DHT22;10963;50.934;4.668;2024-02-26T02:30:01;6.90;99.90
21602;DHT22;10963;50.934;4.668;2024-02-26T02:32:27;6.80;99.90
21602;DHT22;10963;50.934;4.668;2024-02-26T02:34:54;6.80;99.90
21602;DHT22;10963;50.934;4.668;2024-02-26T02:37:22;6.80;99.90
21602;DHT22;10963;50.934;4.668;2024-02-26T02:39:50;6.80;99.90
21602;DHT22;10963;50.934;4.668;2024-02-26T02:42:17;6.80;99.90
21602;DHT22;10963;50.934;4.668;2024-02-26T02:44:42;6.80;99.90
21602;DHT22;10963;50.934;4.668;2024-02-26T02:47:12;6.70;99.90
21602;DHT22;10963;50.934;4.668;2024-02-26T02:49:38;6.70;99.90
21602;DHT22;10963;50.934;4.668;2024-02-26T02:52:04;6.70;99.90
21602;DHT22;10963;50.934;4.668;2024-02-26T02:54:30;6.80;99.90
21602;DHT22;10963;50.934;4.668;2024-02-26T02:56:55;6.80;99.90
21602;DHT22;10963;50.934;4.668;2024-02-26T02:59:21;6.80;99.90
21602;DHT22;10963;50.934;4.668;2024-02-26T03:01:47;6.80;99.90
21602;DHT22;10963;50.934;4.668;2024-02-26T03:04:13;6.70;99.90
21602;DHT22;10963;50.934;4.668;2024-02-26T03:06:38;6.70;99.90
21602;DHT22;10963;50.934;4.668;2024-02-26T03:09:04;6.80;99.90
21602;DHT22;10963;50.934;4.668;2024-02-26T03:11:30;6.80;99.90
21602;DHT22;10963;50.934;4.668;2024-02-26T03:13:55;6.80;99.90
21602;DHT22;10963;50.934;4.668;2024-02-26T03:16:21;6.70;99.90
21602;DHT22;10963;50.934;4.668;2024-02-26T03:18:49;6.70;99.90
21602;DHT22;10963;50.934;4.668;2024-02-26T03:21:17;6.70;99.90
21602;DHT22;10963;50.934;4.668;2024-02-26T03:23:43;6.70;99.90
21602;DHT22;10963;50.934;4.668;2024-02-26T03:26:09;6.60;99.90
21602;DHT22;10963;50.934;4.668;2024-02-26T03:28:41;6.60;99.90
21602;DHT22;10963;50.934;4.668;2024-02-26T03:31:07;6.60;99.90
21602;DHT22;10963;50.934;4.668;2024-02-26T03:33:37;6.60;99.90
21602;DHT22;10963;50.934;4.668;2024-02-26T03:36:03;6.60;99.90
21602;DHT22;10963;50.934;4.668;2024-02-26T03:38:32;6.70;99.90
21602;DHT22;10963;50.934;4.668;2024-02-26T03:41:02;6.60;99.90
21602;DHT22;10963;50.934;4.668;2024-02-26T03:43:30;6.60;99.90
21602;DHT22;10963;50.934;4.668;2024-02-26T03:45:57;6.60;99.90
21602;DHT22;10963;50.934;4.668;2024-02-26T03:48:25;6.70;99.90
21602;DHT22;10963;50.934;4.668;2024-02-26T03:50:53;6.70;99.90
21602;DHT22;10963;50.934;4.668;2024-02-26T03:53:21;6.70;99.90
21602;DHT22;10963;50.934;4.668;2024-02-26T03:55:47;6.70;99.90
21602;DHT22;10963;50.934;4.668;2024-02-26T03:58:15;6.60;99.90
21602;DHT22;10963;50.934;4.668;2024-02-26T04:00:42;6.70;99.90
21602;DHT22;10963;50.934;4.668;2024-02-26T04:03:08;6.60;99.90
21602;DHT22;10963;50.934;4.668;2024-02-26T04:05:34;6.60;99.90
21602;DHT22;10963;50.934;4.668;2024-02-26T04:07:59;6.70;99.90
21602;DHT22;10963;50.934;4.668;2024-02-26T04:10:25;6.70;99.90
21602;DHT22;10963;50.934;4.668;2024-02-26T04:12:51;6.70;99.90
21602;DHT22;10963;50.934;4.668;2024-02-26T04:15:17;6.70;99.90
21602;DHT22;10963;50.934;4.668;2024-02-26T04:17:45;6.70;99.90
21602;DHT22;10963;50.934;4.668;2024-02-26T04:20:17;6.70;99.90
21602;DHT22;10963;50.934;4.668;2024-02-26T04:22:43;6.60;99.90
21602;DHT22;10963;50.934;4.668;2024-02-26T04:25:08;6.70;99.90
21602;DHT22;10963;50.934;4.668;2024-02-26T04:27:36;6.80;99.90
21602;DHT22;10963;50.934;4.668;2024-02-26T04:30:03;6.70;99.90
21602;DHT22;10963;50.934;4.668;2024-02-26T04:32:29;6.70;99.90
21602;DHT22;10963;50.934;4.668;2024-02-26T04:34:55;6.70;99.90
21602;DHT22;10963;50.934;4.668;2024-02-26T04:37:21;6.70;99.90
21602;DHT22;10963;50.934;4.668;2024-02-26T04:39:46;6.70;99.90
21602;DHT22;10963;50.934;4.668;2024-02-26T04:42:12;6.70;99.90
21602;DHT22;10963;50.934;4.668;2024-02-26T04:44:40;6.70;99.90
21602;DHT22;10963;50.934;4.668;2024-02-26T04:47:08;6.60;99.90
21602;DHT22;10963;50.934;4.668;2024-02-26T04:49:34;6.70;99.90
21602;DHT22;10963;50.934;4.668;2024-02-26T04:52:00;6.70;99.90
21602;DHT22;10963;50.934;4.668;2024-02-26T04:54:25;6.60;99.90
21602;DHT22;10963;50.934;4.668;2024-02-26T04:56:51;6.70;99.90
21602;DHT22;10963;50.934;4.668;2024-02-26T04:59:17;6.70;99.90
21602;DHT22;10963;50.934;4.668;2024-02-26T05:01:42;6.70;99.90
21602;DHT22;10963;50.934;4.668;2024-02-26T05:04:11;6.70;99.90
21602;DHT22;10963;50.934;4.668;2024-02-26T05:06:37;6.60;99.90
21602;DHT22;10963;50.934;4.668;2024-02-26T05:09:05;6.60;99.90
21602;DHT22;10963;50.934;4.668;2024-02-26T05:11:33;6.60;99.90
21602;DHT22;10963;50.934;4.668;2024-02-26T05:14:00;6.60;99.90
21602;DHT22;10963;50.934;4.668;2024-02-26T05:16:26;6.60;99.90
21602;DHT22;10963;50.934;4.668;2024-02-26T05:18:53;6.60;99.90
21602;DHT22;10963;50.934;4.668;2024-02-26T05:21:18;6.60;99.90
21602;DHT22;10963;50.934;4.668;2024-02-26T05:23:44;6.60;99.90
21602;DHT22;10963;50.934;4.668;2024-02-26T05:26:10;6.60;99.90
21602;DHT22;10963;50.934;4.668;2024-02-26T05:28:39;6.60;99.90
21602;DHT22;10963;50.934;4.668;2024-02-26T05:31:07;6.60;99.90
21602;DHT22;10963;50.934;4.668;2024-02-26T05:33:35;6.50;99.90
21602;DHT22;10963;50.934;4.668;2024-02-26T05:36:01;6.50;99.90
21602;DHT22;10963;50.934;4.668;2024-02-26T05:38:29;6.50;99.90
21602;DHT22;10963;50.934;4.668;2024-02-26T05:40:55;6.60;99.90
21602;DHT22;10963;50.934;4.668;2024-02-26T05:43:23;6.50;99.90
21602;DHT22;10963;50.934;4.668;2024-02-26T05:45:49;6.50;99.90
21602;DHT22;10963;50.934;4.668;2024-02-26T05:48:16;6.60;99.90
21602;DHT22;10963;50.934;4.668;2024-02-26T05:50:44;6.60;99.90
21602;DHT22;10963;50.934;4.668;2024-02-26T05:53:10;6.50;99.90
21602;DHT22;10963;50.934;4.668;2024-02-26T05:55:38;6.50;99.90
21602;DHT22;10963;50.934;4.668;2024-02-26T05:58:07;6.50;99.90
21602;DHT22;10963;50.934;4.668;2024-02-26T06:00:32;6.50;99.90
21602;DHT22;10963;50.934;4.668;2024-02-26T06:03:00;6.50;99.90
21602;DHT22;10963;50.934;4.668;2024-02-26T06:05:27;6.50;99.90
21602;DHT22;10963;50.934;4.668;2024-02-26T06:07:53;6.50;99.90
21602;DHT22;10963;50.934;4.668;2024-02-26T06:10:20;6.50;99.90
21602;DHT22;10963;50.934;4.668;2024-02-26T06:12:49;6.50;99.90
21602;DHT22;10963;50.934;4.668;2024-02-26T06:15:15;6.50;99.90
21602;DHT22;10963;50.934;4.668;2024-02-26T06:17:43;6.50;99.90
21602;DHT22;10963;50.934;4.668;2024-02-26T06:20:11;6.40;99.90
21602;DHT22;10963;50.934;4.668;2024-02-26T06:22:40;6.40;99.90
21602;DHT22;10963;50.934;4.668;2024-02-26T06:25:07;6.50;99.90
21602;DHT22;10963;50.934;4.668;2024-02-26T06:27:32;6.50;99.90
21602;DHT22;10963;50.934;4.668;2024-02-26T06:30:01;6.40;99.90
21602;DHT22;10963;50.934;4.668;2024-02-26T06:32:26;6.40;99.90
21602;DHT22;10963;50.934;4.668;2024-02-26T06:34:54;6.40;99.90
21602;DHT22;10963;50.934;4.668;2024-02-26T06:37:20;6.30;99.90
21602;DHT22;10963;50.934;4.668;2024-02-26T06:39:46;6.30;99.90
21602;DHT22;10963;50.934;4.668;2024-02-26T06:42:12;6.40;99.90
21602;DHT22;10963;50.934;4.668;2024-02-26T06:44:40;6.30;99.90
21602;DHT22;10963;50.934;4.668;2024-02-26T06:47:06;6.30;99.90
21602;DHT22;10963;50.934;4.668;2024-02-26T06:49:36;6.30;99.90
21602;DHT22;10963;50.934;4.668;2024-02-26T06:52:04;6.30;99.90
21602;DHT22;10963;50.934;4.668;2024-02-26T06:54:34;6.30;99.90
21602;DHT22;10963;50.934;4.668;2024-02-26T06:56:59;6.30;99.90
21602;DHT22;10963;50.934;4.668;2024-02-26T06:59:27;6.30;99.90
21602;DHT22;10963;50.934;4.668;2024-02-26T07:01:53;6.30;99.90
21602;DHT22;10963;50.934;4.668;2024-02-26T07:04:20;6.40;99.90
21602;DHT22;10963;50.934;4.668;2024-02-26T07:06:46;6.40;99.90
21602;DHT22;10963;50.934;4.668;2024-02-26T07:09:15;6.30;99.90
21602;DHT22;10963;50.934;4.668;2024-02-26T07:11:41;6.30;99.90
21602;DHT22;10963;50.934;4.668;2024-02-26T07:14:12;6.30;99.90
21602;DHT22;10963;50.934;4.668;2024-02-26T07:16:38;6.30;99.90
21602;DHT22;10963;50.934;4.668;2024-02-26T07:19:04;6.30;99.90
21602;DHT22;10963;50.934;4.668;2024-02-26T07:21:30;6.30;99.90
21602;DHT22;10963;50.934;4.668;2024-02-26T07:23:58;6.30;99.90
21602;DHT22;10963;50.934;4.668;2024-02-26T07:26:23;6.30;99.90
21602;DHT22;10963;50.934;4.668;2024-02-26T07:28:56;6.40;99.90
21602;DHT22;10963;50.934;4.668;2024-02-26T07:31:24;6.30;99.90
21602;DHT22;10963;50.934;4.668;2024-02-26T07:33:52;6.30;99.90
21602;DHT22;10963;50.934;4.668;2024-02-26T07:36:18;6.30;99.90
21602;DHT22;10963;50.934;4.668;2024-02-26T07:38:44;6.30;99.90
21602;DHT22;10963;50.934;4.668;2024-02-26T07:41:12;6.20;99.90
21602;DHT22;10963;50.934;4.668;2024-02-26T07:43:40;6.20;99.90
21602;DHT22;10963;50.934;4.668;2024-02-26T07:46:10;6.30;99.90
21602;DHT22;10963;50.934;4.668;2024-02-26T07:48:39;6.30;99.90
21602;DHT22;10963;50.934;4.668;2024-02-26T07:51:07;6.30;99.90
21602;DHT22;10963;50.934;4.668;2024-02-26T07:53:35;6.30;99.90
21602;DHT22;10963;50.934;4.668;2024-02-26T07:56:01;6.30;99.90
21602;DHT22;10963;50.934;4.668;2024-02-26T07:58:27;6.30;99.90
21602;DHT22;10963;50.934;4.668;2024-02-26T08:00:53;6.40;99.90
21602;DHT22;10963;50.934;4.668;2024-02-26T08:03:20;6.30;99.90
21602;DHT22;10963;50.934;4.668;2024-02-26T08:05:46;6.30;99.90
21602;DHT22;10963;50.934;4.668;2024-02-26T08:08:12;6.30;99.90
21602;DHT22;10963;50.934;4.668;2024-02-26T08:10:43;6.30;99.90
21602;DHT22;10963;50.934;4.668;2024-02-26T08:13:11;6.30;99.90
21602;DHT22;10963;50.934;4.668;2024-02-26T08:15:37;6.30;99.90
21602;DHT22;10963;50.934;4.668;2024-02-26T08:18:03;6.20;99.90
21602;DHT22;10963;50.934;4.668;2024-02-26T08:20:29;6.30;99.90
21602;DHT22;10963;50.934;4.668;2024-02-26T08:23:00;6.30;99.90
21602;DHT22;10963;50.934;4.668;2024-02-26T08:25:26;6.30;99.90
21602;DHT22;10963;50.934;4.668;2024-02-26T08:27:52;6.30;99.90
21602;DHT22;10963;50.934;4.668;2024-02-26T08:30:21;6.40;99.90
21602;DHT22;10963;50.934;4.668;2024-02-26T08:32:47;6.40;99.90
21602;DHT22;10963;50.934;4.668;2024-02-26T08:35:13;6.40;99.90
21602;DHT22;10963;50.934;4.668;2024-02-26T08:37:39;6.40;99.90
21602;DHT22;10963;50.934;4.668;2024-02-26T08:40:06;6.50;99.90
21602;DHT22;10963;50.934;4.668;2024-02-26T08:42:32;6.40;99.90
21602;DHT22;10963;50.934;4.668;2024-02-26T08:44:57;6.40;99.90
21602;DHT22;10963;50.934;4.668;2024-02-26T08:47:26;6.40;99.90
21602;DHT22;10963;50.934;4.668;2024-02-26T08:49:54;6.40;99.90
21602;DHT22;10963;50.934;4.668;2024-02-26T08:52:20;6.40;99.90
21602;DHT22;10963;50.934;4.668;2024-02-26T08:54:47;6.40;99.90
21602;DHT22;10963;50.934;4.668;2024-02-26T08:57:13;6.30;99.90
21602;DHT22;10963;50.934;4.668;2024-02-26T08:59:41;6.30;99.90
21602;DHT22;10963;50.934;4.668;2024-02-26T09:02:09;6.40;99.90
21602;DHT22;10963;50.934;4.668;2024-02-26T09:04:37;6.40;99.90
21602;DHT22;10963;50.934;4.668;2024-02-26T09:07:05;6.40;99.90
21602;DHT22;10963;50.934;4.668;2024-02-26T09:09:31;6.30;99.90
21602;DHT22;10963;50.934;4.668;2024-02-26T09:11:57;6.30;99.90
21602;DHT22;10963;50.934;4.668;2024-02-26T09:14:26;6.30;99.90
21602;DHT22;10963;50.934;4.668;2024-02-26T09:16:54;6.30;99.90
21602;DHT22;10963;50.934;4.668;2024-02-26T09:19:19;6.30;99.90
21602;DHT22;10963;50.934;4.668;2024-02-26T09:21:45;6.40;99.90
21602;DHT22;10963;50.934;4.668;2024-02-26T09:24:12;6.30;99.90
21602;DHT22;10963;50.934;4.668;2024-02-26T09:26:38;6.50;99.90
21602;DHT22;10963;50.934;4.668;2024-02-26T09:29:04;6.50;99.90
21602;DHT22;10963;50.934;4.668;2024-02-26T09:31:30;6.40;99.90
21602;DHT22;10963;50.934;4.668;2024-02-26T09:33:56;6.40;99.90
21602;DHT22;10963;50.934;4.668;2024-02-26T09:36:21;6.40;99.90
21602;DHT22;10963;50.934;4.668;2024-02-26T09:38:48;6.40;99.90
21602;DHT22;10963;50.934;4.668;2024-02-26T09:41:16;6.40;99.90
21602;DHT22;10963;50.934;4.668;2024-02-26T09:43:48;6.40;99.90
21602;DHT22;10963;50.934;4.668;2024-02-26T09:46:18;6.40;99.90
21602;DHT22;10963;50.934;4.668;2024-02-26T09:48:46;6.50;99.90
21602;DHT22;10963;50.934;4.668;2024-02-26T09:51:14;6.50;99.90
21602;DHT22;10963;50.934;4.668;2024-02-26T09:53:43;6.50;99.90
21602;DHT22;10963;50.934;4.668;2024-02-26T09:56:12;6.50;99.90
21602;DHT22;10963;50.934;4.668;2024-02-26T09:58:39;6.40;99.90
21602;DHT22;10963;50.934;4.668;2024-02-26T10:01:13;6.40;99.90
21602;DHT22;10963;50.934;4.668;2024-02-26T10:03:42;6.30;99.90
21602;DHT22;10963;50.934;4.668;2024-02-26T10:06:10;6.30;99.90
21602;DHT22;10963;50.934;4.668;2024-02-26T10:08:37;6.40;99.90
21602;DHT22;10963;50.934;4.668;2024-02-26T10:11:15;6.40;99.90
21602;DHT22;10963;50.934;4.668;2024-02-26T10:13:41;6.40;99.90
21602;DHT22;10963;50.934;4.668;2024-02-26T10:16:07;6.40;99.90
21602;DHT22;10963;50.934;4.668;2024-02-26T10:21:12;6.40;99.90
21602;DHT22;10963;50.934;4.668;2024-02-26T10:23:39;6.40;99.90
21602;DHT22;10963;50.934;4.668;2024-02-26T10:26:07;6.40;99.90
21602;DHT22;10963;50.934;4.668;2024-02-26T10:28:36;6.40;99.90
21602;DHT22;10963;50.934;4.668;2024-02-26T10:31:02;6.30;99.90
21602;DHT22;10963;50.934;4.668;2024-02-26T10:33:28;6.30;99.90
21602;DHT22;10963;50.934;4.668;2024-02-26T10:35:54;6.30;99.90
21602;DHT22;10963;50.934;4.668;2024-02-26T10:38:20;6.40;99.90
21602;DHT22;10963;50.934;4.668;2024-02-26T10:40:48;6.40;99.90
21602;DHT22;10963;50.934;4.668;2024-02-26T10:43:14;6.40;99.90
21602;DHT22;10963;50.934;4.668;2024-02-26T10:45:42;6.30;99.90
21602;DHT22;10963;50.934;4.668;2024-02-26T10:48:15;6.30;99.90
21602;DHT22;10963;50.934;4.668;2024-02-26T10:50:43;6.20;99.90
21602;DHT22;10963;50.934;4.668;2024-02-26T10:53:20;6.20;99.90
21602;DHT22;10963;50.934;4.668;2024-02-26T10:55:55;6.30;99.90
21602;DHT22;10963;50.934;4.668;2024-02-26T10:58:22;6.30;99.90
21602;DHT22;10963;50.934;4.668;2024-02-26T11:00:50;6.20;99.90
21602;DHT22;10963;50.934;4.668;2024-02-26T11:03:19;6.20;99.90
21602;DHT22;10963;50.934;4.668;2024-02-26T11:05:49;6.30;99.90
21602;DHT22;10963;50.934;4.668;2024-02-26T11:08:24;6.30;99.90
21602;DHT22;10963;50.934;4.668;2024-02-26T11:10:53;6.40;99.90
21602;DHT22;10963;50.934;4.668;2024-02-26T11:13:19;6.40;99.90
21602;DHT22;10963;50.934;4.668;2024-02-26T11:15:47;6.40;99.90
21602;DHT22;10963;50.934;4.668;2024-02-26T11:18:16;6.40;99.90
21602;DHT22;10963;50.934;4.668;2024-02-26T11:20:44;6.30;99.90
21602;DHT22;10963;50.934;4.668;2024-02-26T11:23:11;6.30;99.90
21602;DHT22;10963;50.934;4.668;2024-02-26T11:25:43;6.30;99.90
21602;DHT22;10963;50.934;4.668;2024-02-26T11:28:12;6.30;99.90
21602;DHT22;10963;50.934;4.668;2024-02-26T11:30:46;6.20;99.90
21602;DHT22;10963;50.934;4.668;2024-02-26T11:33:14;6.20;99.90
21602;DHT22;10963;50.934;4.668;2024-02-26T11:35:46;6.10;99.90
21602;DHT22;10963;50.934;4.668;2024-02-26T11:38:24;6.10;99.90
21602;DHT22;10963;50.934;4.668;2024-02-26T11:40:50;6.00;99.90
21602;DHT22;10963;50.934;4.668;2024-02-26T11:43:16;6.00;99.90
21602;DHT22;10963;50.934;4.668;2024-02-26T11:45:48;6.10;99.90
21602;DHT22;10963;50.934;4.668;2024-02-26T11:48:24;6.10;99.90
21602;DHT22;10963;50.934;4.668;2024-02-26T11:50:57;6.10;99.90
21602;DHT22;10963;50.934;4.668;2024-02-26T11:53:31;6.10;99.90
21602;DHT22;10963;50.934;4.668;2024-02-26T11:58:45;6.10;99.90
21602;DHT22;10963;50.934;4.668;2024-02-26T12:01:37;6.20;99.90
21602;DHT22;10963;50.934;4.668;2024-02-26T12:04:06;6.10;99.90
21602;DHT22;10963;50.934;4.668;2024-02-26T12:09:13;6.00;99.90
21602;DHT22;10963;50.934;4.668;2024-02-26T12:11:55;6.00;99.90
21602;DHT22;10963;50.934;4.668;2024-02-26T12:14:25;6.00;99.90
21602;DHT22;10963;50.934;4.668;2024-02-26T12:16:52;6.10;99.90
21602;DHT22;10963;50.934;4.668;2024-02-26T12:19:18;6.20;99.90
21602;DHT22;10963;50.934;4.668;2024-02-26T12:21:48;6.20;99.90
21602;DHT22;10963;50.934;4.668;2024-02-26T12:24:18;6.30;99.90
21602;DHT22;10963;50.934;4.668;2024-02-26T12:26:47;6.30;99.90
21602;DHT22;10963;50.934;4.668;2024-02-26T12:29:14;6.30;99.90
21602;DHT22;10963;50.934;4.668;2024-02-26T12:31:40;6.20;99.90
21602;DHT22;10963;50.934;4.668;2024-02-26T12:34:09;6.20;99.90
21602;DHT22;10963;50.934;4.668;2024-02-26T12:36:35;6.20;99.90
21602;DHT22;10963;50.934;4.668;2024-02-26T12:39:07;6.30;99.90
21602;DHT22;10963;50.934;4.668;2024-02-26T12:41:33;6.10;99.90
21602;DHT22;10963;50.934;4.668;2024-02-26T12:44:02;6.10;99.90
21602;DHT22;10963;50.934;4.668;2024-02-26T12:46:30;6.10;99.90
21602;DHT22;10963;50.934;4.668;2024-02-26T12:48:58;6.10;99.90
21602;DHT22;10963;50.934;4.668;2024-02-26T12:51:26;6.10;99.90
21602;DHT22;10963;50.934;4.668;2024-02-26T12:53:55;6.20;99.90
21602;DHT22;10963;50.934;4.668;2024-02-26T12:56:25;6.20;99.90
21602;DHT22;10963;50.934;4.668;2024-02-26T12:58:56;6.20;99.90
21602;DHT22;10963;50.934;4.668;2024-02-26T13:01:26;6.20;99.90
21602;DHT22;10963;50.934;4.668;2024-02-26T13:03:56;6.20;99.90
21602;DHT22;10963;50.934;4.668;2024-02-26T13:06:26;6.30;99.90
21602;DHT22;10963;50.934;4.668;2024-02-26T13:08:58;6.30;99.90
21602;DHT22;10963;50.934;4.668;2024-02-26T13:11:26;6.30;99.90
21602;DHT22;10963;50.934;4.668;2024-02-26T13:13:54;6.30;99.90
21602;DHT22;10963;50.934;4.668;2024-02-26T13:16:24;6.40;99.90
21602;DHT22;10963;50.934;4.668;2024-02-26T13:18:53;6.30;99.90
21602;DHT22;10963;50.934;4.668;2024-02-26T13:21:19;6.30;99.90
21602;DHT22;10963;50.934;4.668;2024-02-26T13:23:48;6.30;99.90
21602;DHT22;10963;50.934;4.668;2024-02-26T13:26:15;6.30;99.90
21602;DHT22;10963;50.934;4.668;2024-02-26T13:28:41;6.20;99.90
21602;DHT22;10963;50.934;4.668;2024-02-26T13:31:08;6.20;99.90
21602;DHT22;10963;50.934;4.668;2024-02-26T13:33:34;6.10;99.90
21602;DHT22;10963;50.934;4.668;2024-02-26T13:36:00;6.20;99.90
21602;DHT22;10963;50.934;4.668;2024-02-26T13:38:27;6.10;99.90
21602;DHT22;10963;50.934;4.668;2024-02-26T13:40:53;6.10;99.90
21602;DHT22;10963;50.934;4.668;2024-02-26T13:43:20;6.20;99.90
21602;DHT22;10963;50.934;4.668;2024-02-26T13:45:48;6.10;99.90
21602;DHT22;10963;50.934;4.668;2024-02-26T13:48:14;6.10;99.90
21602;DHT22;10963;50.934;4.668;2024-02-26T13:50:41;6.20;99.90
21602;DHT22;10963;50.934;4.668;2024-02-26T13:53:08;6.20;99.90
21602;DHT22;10963;50.934;4.668;2024-02-26T13:55:34;6.30;99.90
21602;DHT22;10963;50.934;4.668;2024-02-26T13:58:00;6.30;99.90
21602;DHT22;10963;50.934;4.668;2024-02-26T14:00:28;6.30;99.90
21602;DHT22;10963;50.934;4.668;2024-02-26T14:03:00;6.30;99.90
21602;DHT22;10963;50.934;4.668;2024-02-26T14:05:26;6.20;99.90
21602;DHT22;10963;50.934;4.668;2024-02-26T14:07:52;6.20;99.90
21602;DHT22;10963;50.934;4.668;2024-02-26T14:10:20;6.10;99.90
21602;DHT22;10963;50.934;4.668;2024-02-26T14:12:46;6.20;99.90
21602;DHT22;10963;50.934;4.668;2024-02-26T14:15:14;6.30;99.90
21602;DHT22;10963;50.934;4.668;2024-02-26T14:17:42;6.30;99.90
21602;DHT22;10963;50.934;4.668;2024-02-26T14:20:09;6.20;99.90
21602;DHT22;10963;50.934;4.668;2024-02-26T14:22:34;6.30;99.90
21602;DHT22;10963;50.934;4.668;2024-02-26T14:25:02;6.30;99.90
21602;DHT22;10963;50.934;4.668;2024-02-26T14:27:28;6.30;99.90
21602;DHT22;10963;50.934;4.668;2024-02-26T14:29:54;6.30;99.90
21602;DHT22;10963;50.934;4.668;2024-02-26T14:32:20;6.30;99.90
21602;DHT22;10963;50.934;4.668;2024-02-26T14:34:46;6.40;99.90
21602;DHT22;10963;50.934;4.668;2024-02-26T14:37:17;6.40;99.90
21602;DHT22;10963;50.934;4.668;2024-02-26T14:39:42;6.40;99.90
21602;DHT22;10963;50.934;4.668;2024-02-26T14:42:10;6.40;99.90
21602;DHT22;10963;50.934;4.668;2024-02-26T14:44:45;6.40;99.90
21602;DHT22;10963;50.934;4.668;2024-02-26T14:47:13;6.30;99.90
21602;DHT22;10963;50.934;4.668;2024-02-26T14:49:39;6.30;99.90
21602;DHT22;10963;50.934;4.668;2024-02-26T14:52:08;6.40;99.90
21602;DHT22;10963;50.934;4.668;2024-02-26T14:54:34;6.40;99.90
21602;DHT22;10963;50.934;4.668;2024-02-26T14:57:04;6.30;99.90
21602;DHT22;10963;50.934;4.668;2024-02-26T14:59:31;6.30;99.90
21602;DHT22;10963;50.934;4.668;2024-02-26T15:02:00;6.30;99.90
21602;DHT22;10963;50.934;4.668;2024-02-26T15:04:29;6.30;99.90
21602;DHT22;10963;50.934;4.668;2024-02-26T15:06:56;6.30;99.90
21602;DHT22;10963;50.934;4.668;2024-02-26T15:09:24;6.30;99.90
21602;DHT22;10963;50.934;4.668;2024-02-26T15:11:50;6.30;99.90
21602;DHT22;10963;50.934;4.668;2024-02-26T15:14:18;6.30;99.90
21602;DHT22;10963;50.934;4.668;2024-02-26T15:16:44;6.30;99.90
21602;DHT22;10963;50.934;4.668;2024-02-26T15:19:10;6.30;99.90
21602;DHT22;10963;50.934;4.668;2024-02-26T15:21:45;6.30;99.90
21602;DHT22;10963;50.934;4.668;2024-02-26T15:24:13;6.30;99.90
21602;DHT22;10963;50.934;4.668;2024-02-26T15:26:44;6.30;99.90
21602;DHT22;10963;50.934;4.668;2024-02-26T15:29:10;6.20;99.90
21602;DHT22;10963;50.934;4.668;2024-02-26T15:31:37;6.30;99.90
21602;DHT22;10963;50.934;4.668;2024-02-26T15:34:07;6.40;99.90
21602;DHT22;10963;50.934;4.668;2024-02-26T15:36:35;6.50;99.90
21602;DHT22;10963;50.934;4.668;2024-02-26T15:39:05;6.40;99.90
21602;DHT22;10963;50.934;4.668;2024-02-26T15:41:32;6.40;99.90
21602;DHT22;10963;50.934;4.668;2024-02-26T15:43:58;6.40;99.90
21602;DHT22;10963;50.934;4.668;2024-02-26T15:46:26;6.40;99.90
21602;DHT22;10963;50.934;4.668;2024-02-26T15:48:54;6.40;99.90
21602;DHT22;10963;50.934;4.668;2024-02-26T15:51:21;6.40;99.90
21602;DHT22;10963;50.934;4.668;2024-02-26T15:53:50;6.30;99.90